sensor_id;sensor_type;location;lat;lon;timestamp;temperature;humidity
12166;DHT22;6146;48.128;11.476;2022-09-24T00:02:12;11.10;99.90
12166;DHT22;6146;48.128;11.476;2022-09-24T00:04:38;11.10;99.90
12166;DHT22;6146;48.128;11.476;2022-09-24T00:07:04;11.10;99.90
12166;DHT22;6146;48.128;11.476;2022-09-24T00:09:29;11.10;99.90
12166;DHT22;6146;48.128;11.476;2022-09-24T00:11:55;11.10;99.90
12166;DHT22;6146;48.128;11.476;2022-09-24T00:14:20;11.00;99.90
12166;DHT22;6146;48.128;11.476;2022-09-24T00:16:46;11.00;99.90
12166;DHT22;6146;48.128;11.476;2022-09-24T00:19:12;11.00;99.90
12166;DHT22;6146;48.128;11.476;2022-09-24T00:21:38;11.00;99.90
12166;DHT22;6146;48.128;11.476;2022-09-24T00:24:06;11.00;99.90
12166;DHT22;6146;48.128;11.476;2022-09-24T00:26:32;11.00;99.90
12166;DHT22;6146;48.128;11.476;2022-09-24T00:29:19;11.00;99.90
12166;DHT22;6146;48.128;11.476;2022-09-24T00:31:45;11.00;99.90
12166;DHT22;6146;48.128;11.476;2022-09-24T00:34:10;11.10;99.90
12166;DHT22;6146;48.128;11.476;2022-09-24T00:36:36;11.20;99.90
12166;DHT22;6146;48.128;11.476;2022-09-24T00:39:02;11.20;99.90
12166;DHT22;6146;48.128;11.476;2022-09-24T00:41:33;11.20;99.90
12166;DHT22;6146;48.128;11.476;2022-09-24T00:43:59;11.30;99.90
12166;DHT22;6146;48.128;11.476;2022-09-24T00:46:37;11.20;99.90
12166;DHT22;6146;48.128;11.476;2022-09-24T00:49:20;11.30;99.90
12166;DHT22;6146;48.128;11.476;2022-09-24T00:51:49;11.30;99.90
12166;DHT22;6146;48.128;11.476;2022-09-24T00:54:19;11.20;99.90
12166;DHT22;6146;48.128;11.476;2022-09-24T00:56:48;11.20;99.90
12166;DHT22;6146;48.128;11.476;2022-09-24T00:59:16;11.10;99.90
12166;DHT22;6146;48.128;11.476;2022-09-24T01:01:46;11.10;99.90
12166;DHT22;6146;48.128;11.476;2022-09-24T01:04:13;11.10;99.90
12166;DHT22;6146;48.128;11.476;2022-09-24T01:06:40;11.10;99.90
12166;DHT22;6146;48.128;11.476;2022-09-24T01:09:06;11.10;99.90
12166;DHT22;6146;48.128;11.476;2022-09-24T01:17:09;11.10;99.90
12166;DHT22;6146;48.128;11.476;2022-09-24T01:22:42;11.20;99.90
12166;DHT22;6146;48.128;11.476;2022-09-24T01:25:41;11.30;99.90
12166;DHT22;6146;48.128;11.476;2022-09-24T01:31:02;11.40;99.90
12166;DHT22;6146;48.128;11.476;2022-09-24T01:33:31;11.40;99.90
12166;DHT22;6146;48.128;11.476;2022-09-24T01:36:01;11.40;99.90
12166;DHT22;6146;48.128;11.476;2022-09-24T01:38:35;11.40;99.90
12166;DHT22;6146;48.128;11.476;2022-09-24T01:41:03;11.30;99.90
12166;DHT22;6146;48.128;11.476;2022-09-24T01:43:30;11.40;99.90
12166;DHT22;6146;48.128;11.476;2022-09-24T01:45:59;11.50;99.90
12166;DHT22;6146;48.128;11.476;2022-09-24T01:48:25;11.40;99.90
12166;DHT22;6146;48.128;11.476;2022-09-24T01:51:01;11.30;99.90
12166;DHT22;6146;48.128;11.476;2022-09-24T01:53:33;11.40;99.90
12166;DHT22;6146;48.128;11.476;2022-09-24T01:56:06;11.40;99.90
12166;DHT22;6146;48.128;11.476;2022-09-24T01:58:39;11.40;99.90
12166;DHT22;6146;48.128;11.476;2022-09-24T02:01:13;11.40;99.90
12166;DHT22;6146;48.128;11.476;2022-09-24T02:03:44;11.50;99.90
12166;DHT22;6146;48.128;11.476;2022-09-24T02:06:22;11.50;99.90
12166;DHT22;6146;48.128;11.476;2022-09-24T02:08:49;11.50;99.90
12166;DHT22;6146;48.128;11.476;2022-09-24T02:11:20;11.50;99.90
12166;DHT22;6146;48.128;11.476;2022-09-24T02:14:01;11.50;99.90
12166;DHT22;6146;48.128;11.476;2022-09-24T02:16:47;11.50;99.90
12166;DHT22;6146;48.128;11.476;2022-09-24T02:19:17;11.50;99.90
12166;DHT22;6146;48.128;11.476;2022-09-24T02:21:43;11.50;99.90
12166;DHT22;6146;48.128;11.476;2022-09-24T02:24:15;11.50;99.90
12166;DHT22;6146;48.128;11.476;2022-09-24T02:26:43;11.60;99.90
12166;DHT22;6146;48.128;11.476;2022-09-24T02:29:09;11.60;99.90
12166;DHT22;6146;48.128;11.476;2022-09-24T02:31:45;11.60;99.90
12166;DHT22;6146;48.128;11.476;2022-09-24T02:34:16;11.60;99.90
12166;DHT22;6146;48.128;11.476;2022-09-24T02:37:04;11.60;99.90
12166;DHT22;6146;48.128;11.476;2022-09-24T02:39:29;11.60;99.90
12166;DHT22;6146;48.128;11.476;2022-09-24T02:41:56;11.60;99.90
12166;DHT22;6146;48.128;11.476;2022-09-24T02:44:22;11.60;99.90
12166;DHT22;6146;48.128;11.476;2022-09-24T02:46:48;11.50;99.90
12166;DHT22;6146;48.128;11.476;2022-09-24T02:49:15;11.50;99.90
12166;DHT22;6146;48.128;11.476;2022-09-24T02:51:42;11.50;99.90
12166;DHT22;6146;48.128;11.476;2022-09-24T02:54:08;11.40;99.90
12166;DHT22;6146;48.128;11.476;2022-09-24T02:56:34;11.40;99.90
12166;DHT22;6146;48.128;11.476;2022-09-24T02:59:00;11.50;99.90
12166;DHT22;6146;48.128;11.476;2022-09-24T03:01:29;11.50;99.90
12166;DHT22;6146;48.128;11.476;2022-09-24T03:03:55;11.50;99.90
12166;DHT22;6146;48.128;11.476;2022-09-24T03:06:21;11.40;99.90
12166;DHT22;6146;48.128;11.476;2022-09-24T03:08:49;11.40;99.90
12166;DHT22;6146;48.128;11.476;2022-09-24T03:11:15;11.40;99.90
12166;DHT22;6146;48.128;11.476;2022-09-24T03:13:40;11.40;99.90
12166;DHT22;6146;48.128;11.476;2022-09-24T03:16:06;11.40;99.90
12166;DHT22;6146;48.128;11.476;2022-09-24T03:18:33;11.40;99.90
12166;DHT22;6146;48.128;11.476;2022-09-24T03:21:05;11.40;99.90
12166;DHT22;6146;48.128;11.476;2022-09-24T03:23:32;11.50;99.90
12166;DHT22;6146;48.128;11.476;2022-09-24T03:25:57;11.50;99.90
12166;DHT22;6146;48.128;11.476;2022-09-24T03:28:23;11.50;99.90
12166;DHT22;6146;48.128;11.476;2022-09-24T03:30:48;11.50;99.90
12166;DHT22;6146;48.128;11.476;2022-09-24T03:33:38;11.60;99.90
12166;DHT22;6146;48.128;11.476;2022-09-24T03:36:16;11.60;99.90
12166;DHT22;6146;48.128;11.476;2022-09-24T03:38:45;11.60;99.90
12166;DHT22;6146;48.128;11.476;2022-09-24T03:41:12;11.70;99.90
12166;DHT22;6146;48.128;11.476;2022-09-24T03:43:38;11.70;99.90
12166;DHT22;6146;48.128;11.476;2022-09-24T03:46:05;11.80;99.90
12166;DHT22;6146;48.128;11.476;2022-09-24T03:48:32;11.80;99.90
12166;DHT22;6146;48.128;11.476;2022-09-24T03:51:03;11.80;99.90
12166;DHT22;6146;48.128;11.476;2022-09-24T03:53:28;11.80;99.90
12166;DHT22;6146;48.128;11.476;2022-09-24T03:55:55;11.80;99.90
12166;DHT22;6146;48.128;11.476;2022-09-24T03:58:22;11.80;99.90
12166;DHT22;6146;48.128;11.476;2022-09-24T04:00:52;11.80;99.90
12166;DHT22;6146;48.128;11.476;2022-09-24T04:03:18;11.90;99.90
12166;DHT22;6146;48.128;11.476;2022-09-24T04:05:45;12.00;99.90
12166;DHT22;6146;48.128;11.476;2022-09-24T04:08:11;12.00;99.90
12166;DHT22;6146;48.128;11.476;2022-09-24T04:10:36;12.00;99.90
12166;DHT22;6146;48.128;11.476;2022-09-24T04:13:02;12.10;99.90
12166;DHT22;6146;48.128;11.476;2022-09-24T04:15:28;12.10;99.90
12166;DHT22;6146;48.128;11.476;2022-09-24T04:17:56;12.10;99.90
12166;DHT22;6146;48.128;11.476;2022-09-24T04:20:24;12.10;99.90
12166;DHT22;6146;48.128;11.476;2022-09-24T04:22:51;12.20;99.90
12166;DHT22;6146;48.128;11.476;2022-09-24T04:25:17;12.20;99.90
12166;DHT22;6146;48.128;11.476;2022-09-24T04:27:51;12.20;99.90
12166;DHT22;6146;48.128;11.476;2022-09-24T04:30:16;12.20;99.90
12166;DHT22;6146;48.128;11.476;2022-09-24T04:32:42;12.20;99.90
12166;DHT22;6146;48.128;11.476;2022-09-24T04:35:08;12.20;99.90
12166;DHT22;6146;48.128;11.476;2022-09-24T04:37:34;12.20;99.90
12166;DHT22;6146;48.128;11.476;2022-09-24T04:40:01;12.30;99.90
12166;DHT22;6146;48.128;11.476;2022-09-24T04:42:27;12.30;99.90
12166;DHT22;6146;48.128;11.476;2022-09-24T04:44:53;12.30;99.90
12166;DHT22;6146;48.128;11.476;2022-09-24T04:47:19;12.30;99.90
12166;DHT22;6146;48.128;11.476;2022-09-24T04:49:44;12.30;99.90
12166;DHT22;6146;48.128;11.476;2022-09-24T04:52:13;12.30;99.90
12166;DHT22;6146;48.128;11.476;2022-09-24T04:54:40;12.30;99.90
12166;DHT22;6146;48.128;11.476;2022-09-24T04:57:14;12.30;99.90
12166;DHT22;6146;48.128;11.476;2022-09-24T04:59:40;12.30;99.90
12166;DHT22;6146;48.128;11.476;2022-09-24T05:02:06;12.30;99.90
12166;DHT22;6146;48.128;11.476;2022-09-24T05:04:36;12.30;99.90
12166;DHT22;6146;48.128;11.476;2022-09-24T05:07:02;12.40;99.90
12166;DHT22;6146;48.128;11.476;2022-09-24T05:09:28;12.40;99.90
12166;DHT22;6146;48.128;11.476;2022-09-24T05:11:56;12.50;99.90
12166;DHT22;6146;48.128;11.476;2022-09-24T05:14:22;12.50;99.90
12166;DHT22;6146;48.128;11.476;2022-09-24T05:16:48;12.50;99.90
12166;DHT22;6146;48.128;11.476;2022-09-24T05:19:13;12.50;99.90
12166;DHT22;6146;48.128;11.476;2022-09-24T05:21:39;12.50;99.90
12166;DHT22;6146;48.128;11.476;2022-09-24T05:24:04;12.60;99.90
12166;DHT22;6146;48.128;11.476;2022-09-24T05:26:30;13.50;99.90
12166;DHT22;6146;48.128;11.476;2022-09-24T05:29:14;12.50;99.90
12166;DHT22;6146;48.128;11.476;2022-09-24T05:31:40;12.50;99.90
12166;DHT22;6146;48.128;11.476;2022-09-24T05:34:05;12.50;99.90
12166;DHT22;6146;48.128;11.476;2022-09-24T05:36:31;12.50;99.90
12166;DHT22;6146;48.128;11.476;2022-09-24T05:38:56;12.50;99.90
12166;DHT22;6146;48.128;11.476;2022-09-24T05:41:22;12.60;99.90
12166;DHT22;6146;48.128;11.476;2022-09-24T05:43:47;12.70;99.90
12166;DHT22;6146;48.128;11.476;2022-09-24T05:46:14;12.90;99.90
12166;DHT22;6146;48.128;11.476;2022-09-24T05:48:39;12.90;99.90
12166;DHT22;6146;48.128;11.476;2022-09-24T05:51:05;13.00;99.90
12166;DHT22;6146;48.128;11.476;2022-09-24T05:53:31;13.20;99.90
12166;DHT22;6146;48.128;11.476;2022-09-24T05:55:58;13.40;99.90
12166;DHT22;6146;48.128;11.476;2022-09-24T05:58:23;13.40;99.90
12166;DHT22;6146;48.128;11.476;2022-09-24T06:00:50;13.40;99.90
12166;DHT22;6146;48.128;11.476;2022-09-24T06:03:17;13.50;99.90
12166;DHT22;6146;48.128;11.476;2022-09-24T06:05:44;13.60;99.90
12166;DHT22;6146;48.128;11.476;2022-09-24T06:08:11;13.70;99.90
12166;DHT22;6146;48.128;11.476;2022-09-24T06:10:37;13.60;99.90
12166;DHT22;6146;48.128;11.476;2022-09-24T06:13:03;13.70;99.90
12166;DHT22;6146;48.128;11.476;2022-09-24T06:15:29;13.80;99.90
12166;DHT22;6146;48.128;11.476;2022-09-24T06:17:55;14.10;99.90
12166;DHT22;6146;48.128;11.476;2022-09-24T06:20:22;14.30;99.90
12166;DHT22;6146;48.128;11.476;2022-09-24T06:22:48;14.60;99.90
12166;DHT22;6146;48.128;11.476;2022-09-24T06:25:13;14.90;99.90
12166;DHT22;6146;48.128;11.476;2022-09-24T06:27:39;15.00;99.90
12166;DHT22;6146;48.128;11.476;2022-09-24T06:30:05;15.20;99.90
12166;DHT22;6146;48.128;11.476;2022-09-24T06:32:31;15.30;99.90
12166;DHT22;6146;48.128;11.476;2022-09-24T06:34:57;15.50;99.90
12166;DHT22;6146;48.128;11.476;2022-09-24T06:37:22;15.60;99.90
12166;DHT22;6146;48.128;11.476;2022-09-24T06:39:48;15.70;99.90
12166;DHT22;6146;48.128;11.476;2022-09-24T06:42:13;15.80;99.90
12166;DHT22;6146;48.128;11.476;2022-09-24T06:44:39;15.80;99.90
12166;DHT22;6146;48.128;11.476;2022-09-24T06:47:04;15.80;99.90
12166;DHT22;6146;48.128;11.476;2022-09-24T06:49:30;15.80;99.90
12166;DHT22;6146;48.128;11.476;2022-09-24T06:51:56;15.70;99.90
12166;DHT22;6146;48.128;11.476;2022-09-24T06:54:23;15.60;99.90
12166;DHT22;6146;48.128;11.476;2022-09-24T06:56:48;15.40;99.90
12166;DHT22;6146;48.128;11.476;2022-09-24T06:59:16;15.40;99.90
12166;DHT22;6146;48.128;11.476;2022-09-24T07:01:41;15.40;99.90
12166;DHT22;6146;48.128;11.476;2022-09-24T07:04:07;15.40;99.90
12166;DHT22;6146;48.128;11.476;2022-09-24T07:06:36;15.40;99.90
12166;DHT22;6146;48.128;11.476;2022-09-24T07:09:21;15.40;99.90
12166;DHT22;6146;48.128;11.476;2022-09-24T07:11:46;15.40;99.90
12166;DHT22;6146;48.128;11.476;2022-09-24T07:14:12;15.30;99.90
12166;DHT22;6146;48.128;11.476;2022-09-24T07:16:38;15.30;99.90
12166;DHT22;6146;48.128;11.476;2022-09-24T07:19:04;15.20;99.90
12166;DHT22;6146;48.128;11.476;2022-09-24T07:21:29;15.20;99.90
12166;DHT22;6146;48.128;11.476;2022-09-24T07:23:55;15.20;99.90
12166;DHT22;6146;48.128;11.476;2022-09-24T07:26:21;15.10;99.90
12166;DHT22;6146;48.128;11.476;2022-09-24T07:28:46;15.10;99.90
12166;DHT22;6146;48.128;11.476;2022-09-24T07:31:12;15.20;99.90
12166;DHT22;6146;48.128;11.476;2022-09-24T07:33:37;15.30;99.90
12166;DHT22;6146;48.128;11.476;2022-09-24T07:36:04;15.00;99.90
12166;DHT22;6146;48.128;11.476;2022-09-24T07:38:32;15.00;99.90
12166;DHT22;6146;48.128;11.476;2022-09-24T07:41:00;14.90;99.90
12166;DHT22;6146;48.128;11.476;2022-09-24T07:43:28;14.90;99.90
12166;DHT22;6146;48.128;11.476;2022-09-24T07:45:54;14.90;99.90
12166;DHT22;6146;48.128;11.476;2022-09-24T07:48:20;15.00;99.90
12166;DHT22;6146;48.128;11.476;2022-09-24T07:50:46;15.10;99.90
12166;DHT22;6146;48.128;11.476;2022-09-24T07:53:12;15.10;99.90
12166;DHT22;6146;48.128;11.476;2022-09-24T07:55:39;15.30;99.90
12166;DHT22;6146;48.128;11.476;2022-09-24T07:58:12;15.60;99.90
12166;DHT22;6146;48.128;11.476;2022-09-24T08:00:38;15.80;99.90
12166;DHT22;6146;48.128;11.476;2022-09-24T08:03:04;16.10;99.90
12166;DHT22;6146;48.128;11.476;2022-09-24T08:05:30;16.20;99.90
12166;DHT22;6146;48.128;11.476;2022-09-24T08:07:57;16.30;99.90
12166;DHT22;6146;48.128;11.476;2022-09-24T08:10:24;16.40;99.90
12166;DHT22;6146;48.128;11.476;2022-09-24T08:12:51;16.30;99.90
12166;DHT22;6146;48.128;11.476;2022-09-24T08:15:17;16.20;99.90
12166;DHT22;6146;48.128;11.476;2022-09-24T08:17:43;16.00;99.90
12166;DHT22;6146;48.128;11.476;2022-09-24T08:20:09;15.90;99.90
12166;DHT22;6146;48.128;11.476;2022-09-24T08:22:34;15.80;99.90
12166;DHT22;6146;48.128;11.476;2022-09-24T08:25:00;15.80;99.90
12166;DHT22;6146;48.128;11.476;2022-09-24T08:27:28;15.70;99.90
12166;DHT22;6146;48.128;11.476;2022-09-24T08:29:53;15.70;99.90
12166;DHT22;6146;48.128;11.476;2022-09-24T08:32:20;15.60;99.90
12166;DHT22;6146;48.128;11.476;2022-09-24T08:34:46;15.50;99.90
12166;DHT22;6146;48.128;11.476;2022-09-24T08:37:11;15.50;99.90
12166;DHT22;6146;48.128;11.476;2022-09-24T08:39:38;15.30;99.90
12166;DHT22;6146;48.128;11.476;2022-09-24T08:42:12;15.30;99.90
12166;DHT22;6146;48.128;11.476;2022-09-24T08:44:46;15.30;99.90
12166;DHT22;6146;48.128;11.476;2022-09-24T08:47:45;15.30;99.90
12166;DHT22;6146;48.128;11.476;2022-09-24T08:50:19;15.40;99.90
12166;DHT22;6146;48.128;11.476;2022-09-24T08:52:56;15.50;99.90
12166;DHT22;6146;48.128;11.476;2022-09-24T08:55:34;15.60;99.90
12166;DHT22;6146;48.128;11.476;2022-09-24T09:00:56;16.20;99.90
12166;DHT22;6146;48.128;11.476;2022-09-24T09:03:34;16.30;99.90
12166;DHT22;6146;48.128;11.476;2022-09-24T09:06:02;16.50;99.90
12166;DHT22;6146;48.128;11.476;2022-09-24T09:08:56;16.60;99.90
12166;DHT22;6146;48.128;11.476;2022-09-24T09:11:28;16.70;99.90
12166;DHT22;6146;48.128;11.476;2022-09-24T09:13:59;16.70;99.90
12166;DHT22;6146;48.128;11.476;2022-09-24T09:16:45;16.80;99.90
12166;DHT22;6146;48.128;11.476;2022-09-24T09:19:14;16.90;99.90
12166;DHT22;6146;48.128;11.476;2022-09-24T09:21:42;17.10;99.90
12166;DHT22;6146;48.128;11.476;2022-09-24T09:24:19;17.10;99.90
12166;DHT22;6146;48.128;11.476;2022-09-24T09:26:50;17.10;99.90
12166;DHT22;6146;48.128;11.476;2022-09-24T09:29:18;17.10;99.90
12166;DHT22;6146;48.128;11.476;2022-09-24T09:42:46;16.80;99.90
12166;DHT22;6146;48.128;11.476;2022-09-24T09:45:27;16.60;99.90
12166;DHT22;6146;48.128;11.476;2022-09-24T09:47:55;16.70;99.90
12166;DHT22;6146;48.128;11.476;2022-09-24T09:50:40;16.60;99.90
12166;DHT22;6146;48.128;11.476;2022-09-24T09:53:21;16.50;99.90
12166;DHT22;6146;48.128;11.476;2022-09-24T09:55:55;16.40;99.90
12166;DHT22;6146;48.128;11.476;2022-09-24T09:58:28;16.20;99.90
12166;DHT22;6146;48.128;11.476;2022-09-24T10:01:06;16.40;99.90
12166;DHT22;6146;48.128;11.476;2022-09-24T10:03:47;16.40;99.90
12166;DHT22;6146;48.128;11.476;2022-09-24T10:06:24;16.60;99.90
12166;DHT22;6146;48.128;11.476;2022-09-24T10:08:50;16.90;99.90
12166;DHT22;6146;48.128;11.476;2022-09-24T10:11:16;17.00;99.90
12166;DHT22;6146;48.128;11.476;2022-09-24T10:13:43;17.00;99.90
12166;DHT22;6146;48.128;11.476;2022-09-24T10:16:12;17.10;99.90
12166;DHT22;6146;48.128;11.476;2022-09-24T10:18:48;17.10;99.90
12166;DHT22;6146;48.128;11.476;2022-09-24T10:21:35;16.90;99.90
12166;DHT22;6146;48.128;11.476;2022-09-24T10:24:04;16.90;99.90
12166;DHT22;6146;48.128;11.476;2022-09-24T10:26:42;16.80;99.90
12166;DHT22;6146;48.128;11.476;2022-09-24T10:29:24;16.90;99.90
12166;DHT22;6146;48.128;11.476;2022-09-24T10:32:17;16.90;99.90
12166;DHT22;6146;48.128;11.476;2022-09-24T10:34:57;16.90;99.90
12166;DHT22;6146;48.128;11.476;2022-09-24T10:37:22;16.90;99.90
12166;DHT22;6146;48.128;11.476;2022-09-24T10:40:10;16.70;99.90
12166;DHT22;6146;48.128;11.476;2022-09-24T10:42:36;16.60;99.90
12166;DHT22;6146;48.128;11.476;2022-09-24T10:45:02;16.30;99.90
12166;DHT22;6146;48.128;11.476;2022-09-24T10:50:35;16.20;99.90
12166;DHT22;6146;48.128;11.476;2022-09-24T10:56:11;16.30;99.90
12166;DHT22;6146;48.128;11.476;2022-09-24T11:01:39;16.50;99.90
12166;DHT22;6146;48.128;11.476;2022-09-24T11:33:08;17.30;99.90
12166;DHT22;6146;48.128;11.476;2022-09-24T11:36:07;17.30;99.90
12166;DHT22;6146;48.128;11.476;2022-09-24T11:38:44;17.20;99.90
12166;DHT22;6146;48.128;11.476;2022-09-24T11:57:59;17.30;99.90
12166;DHT22;6146;48.128;11.476;2022-09-24T12:00:37;17.30;99.90
12166;DHT22;6146;48.128;11.476;2022-09-24T12:03:16;17.40;99.90
12166;DHT22;6146;48.128;11.476;2022-09-24T12:06:04;17.20;99.90
12166;DHT22;6146;48.128;11.476;2022-09-24T12:08:35;17.10;99.90
12166;DHT22;6146;48.128;11.476;2022-09-24T12:11:07;17.00;99.90
12166;DHT22;6146;48.128;11.476;2022-09-24T12:13:40;16.90;99.90
12166;DHT22;6146;48.128;11.476;2022-09-24T12:16:14;16.80;99.90
12166;DHT22;6146;48.128;11.476;2022-09-24T12:21:11;16.70;99.90
12166;DHT22;6146;48.128;11.476;2022-09-24T12:23:41;16.70;99.90
12166;DHT22;6146;48.128;11.476;2022-09-24T12:26:09;16.60;99.90
12166;DHT22;6146;48.128;11.476;2022-09-24T12:29:18;16.60;99.90
12166;DHT22;6146;48.128;11.476;2022-09-24T12:35:41;16.80;99.90
12166;DHT22;6146;48.128;11.476;2022-09-24T12:43:33;17.50;99.90
12166;DHT22;6146;48.128;11.476;2022-09-24T12:46:04;17.70;99.90
12166;DHT22;6146;48.128;11.476;2022-09-24T12:48:33;17.80;99.90
12166;DHT22;6146;48.128;11.476;2022-09-24T12:51:02;18.00;99.90
12166;DHT22;6146;48.128;11.476;2022-09-24T12:53:37;18.10;99.90
12166;DHT22;6146;48.128;11.476;2022-09-24T12:56:04;18.00;99.90
12166;DHT22;6146;48.128;11.476;2022-09-24T12:58:37;18.10;99.90
12166;DHT22;6146;48.128;11.476;2022-09-24T13:01:13;18.30;99.90
12166;DHT22;6146;48.128;11.476;2022-09-24T13:04:25;18.40;99.90
12166;DHT22;6146;48.128;11.476;2022-09-24T13:06:51;18.30;99.90
12166;DHT22;6146;48.128;11.476;2022-09-24T13:09:36;18.40;99.90
12166;DHT22;6146;48.128;11.476;2022-09-24T13:12:20;18.50;99.90
12166;DHT22;6146;48.128;11.476;2022-09-24T13:15:34;18.60;99.90
12166;DHT22;6146;48.128;11.476;2022-09-24T13:17:35;18.80;99.90
12166;DHT22;6146;48.128;11.476;2022-09-24T13:20:14;19.20;99.90
12166;DHT22;6146;48.128;11.476;2022-09-24T13:22:40;19.40;99.90
12166;DHT22;6146;48.128;11.476;2022-09-24T13:27:37;20.30;99.90
12166;DHT22;6146;48.128;11.476;2022-09-24T13:30:19;20.30;99.90
12166;DHT22;6146;48.128;11.476;2022-09-24T13:33:20;20.10;99.90
12166;DHT22;6146;48.128;11.476;2022-09-24T13:36:13;19.70;99.90
12166;DHT22;6146;48.128;11.476;2022-09-24T13:41:46;19.30;99.90
12166;DHT22;6146;48.128;11.476;2022-09-24T13:46:44;19.20;99.90
12166;DHT22;6146;48.128;11.476;2022-09-24T13:49:17;19.20;99.90
12166;DHT22;6146;48.128;11.476;2022-09-24T13:51:46;19.00;99.90
12166;DHT22;6146;48.128;11.476;2022-09-24T13:54:30;18.90;99.90
12166;DHT22;6146;48.128;11.476;2022-09-24T13:57:20;19.00;99.90
12166;DHT22;6146;48.128;11.476;2022-09-24T13:59:46;18.90;99.90
12166;DHT22;6146;48.128;11.476;2022-09-24T14:02:23;18.80;99.90
12166;DHT22;6146;48.128;11.476;2022-09-24T14:04:55;18.80;99.90
12166;DHT22;6146;48.128;11.476;2022-09-24T14:07:23;18.90;99.90
12166;DHT22;6146;48.128;11.476;2022-09-24T14:09:48;18.90;99.90
12166;DHT22;6146;48.128;11.476;2022-09-24T14:12:17;18.90;99.90
12166;DHT22;6146;48.128;11.476;2022-09-24T14:14:53;18.80;99.90
12166;DHT22;6146;48.128;11.476;2022-09-24T14:17:22;18.80;99.90
12166;DHT22;6146;48.128;11.476;2022-09-24T14:19:56;18.90;99.90
12166;DHT22;6146;48.128;11.476;2022-09-24T14:22:25;18.80;99.90
12166;DHT22;6146;48.128;11.476;2022-09-24T14:25:02;18.80;99.90
12166;DHT22;6146;48.128;11.476;2022-09-24T14:27:31;18.70;99.90
12166;DHT22;6146;48.128;11.476;2022-09-24T14:30:06;18.40;99.90
12166;DHT22;6146;48.128;11.476;2022-09-24T14:32:34;18.40;99.90
12166;DHT22;6146;48.128;11.476;2022-09-24T14:40:15;18.30;99.90
12166;DHT22;6146;48.128;11.476;2022-09-24T14:42:44;18.20;99.90
12166;DHT22;6146;48.128;11.476;2022-09-24T14:45:41;18.20;99.90
12166;DHT22;6146;48.128;11.476;2022-09-24T14:48:39;18.30;99.90
12166;DHT22;6146;48.128;11.476;2022-09-24T14:54:18;18.20;99.90
12166;DHT22;6146;48.128;11.476;2022-09-24T14:56:41;18.00;99.90
12166;DHT22;6146;48.128;11.476;2022-09-24T14:59:13;17.70;99.90
12166;DHT22;6146;48.128;11.476;2022-09-24T15:01:40;17.60;99.90
12166;DHT22;6146;48.128;11.476;2022-09-24T15:04:16;17.40;99.90
12166;DHT22;6146;48.128;11.476;2022-09-24T15:06:45;17.30;99.90
12166;DHT22;6146;48.128;11.476;2022-09-24T15:09:19;17.10;99.90
12166;DHT22;6146;48.128;11.476;2022-09-24T15:11:47;17.00;99.90
12166;DHT22;6146;48.128;11.476;2022-09-24T15:16:45;16.90;99.90
12166;DHT22;6146;48.128;11.476;2022-09-24T15:21:40;16.70;99.90
12166;DHT22;6146;48.128;11.476;2022-09-24T15:24:08;16.60;99.90
12166;DHT22;6146;48.128;11.476;2022-09-24T15:26:36;16.50;99.90
12166;DHT22;6146;48.128;11.476;2022-09-24T15:29:03;16.40;99.90
12166;DHT22;6146;48.128;11.476;2022-09-24T15:31:29;16.40;99.90
12166;DHT22;6146;48.128;11.476;2022-09-24T15:33:54;16.40;99.90
12166;DHT22;6146;48.128;11.476;2022-09-24T15:36:20;16.30;99.90
12166;DHT22;6146;48.128;11.476;2022-09-24T15:38:47;16.30;99.90
12166;DHT22;6146;48.128;11.476;2022-09-24T15:41:14;16.30;99.90
12166;DHT22;6146;48.128;11.476;2022-09-24T15:43:39;16.20;99.90
12166;DHT22;6146;48.128;11.476;2022-09-24T15:46:05;16.20;99.90
12166;DHT22;6146;48.128;11.476;2022-09-24T15:48:31;16.10;99.90
12166;DHT22;6146;48.128;11.476;2022-09-24T15:50:56;16.00;99.90
12166;DHT22;6146;48.128;11.476;2022-09-24T15:53:25;15.90;99.90
12166;DHT22;6146;48.128;11.476;2022-09-24T15:55:56;15.80;99.90
12166;DHT22;6146;48.128;11.476;2022-09-24T15:58:22;15.70;99.90
12166;DHT22;6146;48.128;11.476;2022-09-24T16:00:48;15.70;99.90
12166;DHT22;6146;48.128;11.476;2022-09-24T16:03:23;15.60;99.90
12166;DHT22;6146;48.128;11.476;2022-09-24T16:05:49;15.60;99.90
12166;DHT22;6146;48.128;11.476;2022-09-24T16:08:15;15.50;99.90
12166;DHT22;6146;48.128;11.476;2022-09-24T16:10:41;15.50;99.90
12166;DHT22;6146;48.128;11.476;2022-09-24T16:13:07;15.60;99.90
12166;DHT22;6146;48.128;11.476;2022-09-24T16:15:34;16.10;99.90
12166;DHT22;6146;48.128;11.476;2022-09-24T16:18:00;15.70;99.90
12166;DHT22;6146;48.128;11.476;2022-09-24T16:20:25;15.70;99.90
12166;DHT22;6146;48.128;11.476;2022-09-24T16:22:51;15.80;99.90
12166;DHT22;6146;48.128;11.476;2022-09-24T16:25:16;15.80;99.90
12166;DHT22;6146;48.128;11.476;2022-09-24T16:27:42;15.80;99.90
12166;DHT22;6146;48.128;11.476;2022-09-24T16:30:08;15.80;99.90
12166;DHT22;6146;48.128;11.476;2022-09-24T16:32:34;15.70;99.90
12166;DHT22;6146;48.128;11.476;2022-09-24T16:35:00;15.70;99.90
12166;DHT22;6146;48.128;11.476;2022-09-24T16:37:25;15.60;99.90
12166;DHT22;6146;48.128;11.476;2022-09-24T16:39:51;15.50;99.90
12166;DHT22;6146;48.128;11.476;2022-09-24T16:42:17;15.50;99.90
12166;DHT22;6146;48.128;11.476;2022-09-24T16:44:42;15.50;99.90
12166;DHT22;6146;48.128;11.476;2022-09-24T16:47:08;15.40;99.90
12166;DHT22;6146;48.128;11.476;2022-09-24T16:49:33;15.40;99.90
12166;DHT22;6146;48.128;11.476;2022-09-24T16:51:59;15.30;99.90
12166;DHT22;6146;48.128;11.476;2022-09-24T16:54:26;15.30;99.90
12166;DHT22;6146;48.128;11.476;2022-09-24T16:56:54;15.20;99.90
12166;DHT22;6146;48.128;11.476;2022-09-24T16:59:20;15.20;99.90
12166;DHT22;6146;48.128;11.476;2022-09-24T17:01:46;15.10;99.90
12166;DHT22;6146;48.128;11.476;2022-09-24T17:04:11;15.10;99.90
12166;DHT22;6146;48.128;11.476;2022-09-24T17:06:37;15.00;99.90
12166;DHT22;6146;48.128;11.476;2022-09-24T17:09:03;14.90;99.90
12166;DHT22;6146;48.128;11.476;2022-09-24T17:11:47;14.90;99.90
12166;DHT22;6146;48.128;11.476;2022-09-24T17:14:14;14.80;99.90
12166;DHT22;6146;48.128;11.476;2022-09-24T17:16:41;14.80;99.90
12166;DHT22;6146;48.128;11.476;2022-09-24T17:19:08;14.70;99.90
12166;DHT22;6146;48.128;11.476;2022-09-24T17:21:35;14.60;99.90
12166;DHT22;6146;48.128;11.476;2022-09-24T17:24:01;14.60;99.90
12166;DHT22;6146;48.128;11.476;2022-09-24T17:26:27;14.60;99.90
12166;DHT22;6146;48.128;11.476;2022-09-24T17:28:53;14.60;99.90
12166;DHT22;6146;48.128;11.476;2022-09-24T17:31:21;14.60;99.90
12166;DHT22;6146;48.128;11.476;2022-09-24T17:33:53;14.60;99.90
12166;DHT22;6146;48.128;11.476;2022-09-24T17:36:20;14.60;99.90
12166;DHT22;6146;48.128;11.476;2022-09-24T17:38:46;14.60;99.90
12166;DHT22;6146;48.128;11.476;2022-09-24T17:41:12;14.60;99.90